sensor_id;sensor_type;location;lat;lon;timestamp;pressure;altitude;pressure_sealevel;temperature;humidity
69153;BME280;56261;51.580;4.578;2023-04-01T00:01:57;99290.94;;;9.33;100.00
69153;BME280;56261;51.580;4.578;2023-04-01T00:04:23;99295.84;;;9.29;100.00
69153;BME280;56261;51.580;4.578;2023-04-01T00:06:48;99287.06;;;9.29;100.00
69153;BME280;56261;51.580;4.578;2023-04-01T00:09:14;99300.94;;;9.18;100.00
69153;BME280;56261;51.580;4.578;2023-04-01T00:11:39;99300.28;;;9.09;100.00
69153;BME280;56261;51.580;4.578;2023-04-01T00:14:06;99300.50;;;9.14;100.00
69153;BME280;56261;51.580;4.578;2023-04-01T00:16:31;99305.81;;;9.14;100.00
69153;BME280;56261;51.580;4.578;2023-04-01T00:18:57;99301.09;;;9.09;100.00
69153;BME280;56261;51.580;4.578;2023-04-01T00:21:22;99304.97;;;9.07;100.00
69153;BME280;56261;51.580;4.578;2023-04-01T00:23:51;99311.09;;;9.07;100.00
69153;BME280;56261;51.580;4.578;2023-04-01T00:26:17;99308.84;;;9.04;100.00
69153;BME280;56261;51.580;4.578;2023-04-01T00:28:45;99309.84;;;9.03;100.00
69153;BME280;56261;51.580;4.578;2023-04-01T00:31:12;99308.00;;;9.04;100.00
69153;BME280;56261;51.580;4.578;2023-04-01T00:33:38;99309.84;;;9.03;100.00
69153;BME280;56261;51.580;4.578;2023-04-01T00:36:10;99313.91;;;8.99;100.00
69153;BME280;56261;51.580;4.578;2023-04-01T00:38:36;99315.75;;;8.99;100.00
69153;BME280;56261;51.580;4.578;2023-04-01T00:41:03;99312.69;;;9.02;100.00
69153;BME280;56261;51.580;4.578;2023-04-01T00:43:28;99319.88;;;9.01;100.00
69153;BME280;56261;51.580;4.578;2023-04-01T00:45:54;99325.38;;;9.00;100.00
69153;BME280;56261;51.580;4.578;2023-04-01T00:48:23;99326.19;;;8.93;100.00
69153;BME280;56261;51.580;4.578;2023-04-01T00:50:58;99327.44;;;8.98;100.00
69153;BME280;56261;51.580;4.578;2023-04-01T00:53:25;99324.75;;;8.91;100.00
69153;BME280;56261;51.580;4.578;2023-04-01T00:56:00;99332.94;;;8.96;100.00
69153;BME280;56261;51.580;4.578;2023-04-01T00:58:28;99329.03;;;8.92;100.00
69153;BME280;56261;51.580;4.578;2023-04-01T01:00:56;99329.84;;;8.92;100.00
69153;BME280;56261;51.580;4.578;2023-04-01T01:03:22;99338.66;;;8.93;100.00
69153;BME280;56261;51.580;4.578;2023-04-01T01:11:14;99334.94;;;8.87;100.00
69153;BME280;56261;51.580;4.578;2023-04-01T01:13:57;99340.66;;;8.84;100.00
69153;BME280;56261;51.580;4.578;2023-04-01T01:16:27;99351.66;;;8.81;100.00
69153;BME280;56261;51.580;4.578;2023-04-01T01:19:15;99355.94;;;8.76;100.00
69153;BME280;56261;51.580;4.578;2023-04-01T01:27:16;99355.38;;;8.87;100.00
69153;BME280;56261;51.580;4.578;2023-04-01T01:29:59;99359.66;;;8.88;100.00
69153;BME280;56261;51.580;4.578;2023-04-01T01:32:45;99362.34;;;8.88;100.00
69153;BME280;56261;51.580;4.578;2023-04-01T01:37:56;99365.22;;;8.86;100.00
69153;BME280;56261;51.580;4.578;2023-04-01T01:40:25;99358.03;;;8.87;100.00
69153;BME280;56261;51.580;4.578;2023-04-01T01:42:54;99368.22;;;8.83;100.00
69153;BME280;56261;51.580;4.578;2023-04-01T01:45:23;99358.59;;;8.76;100.00
69153;BME280;56261;51.580;4.578;2023-04-01T01:47:51;99369.63;;;8.79;100.00
69153;BME280;56261;51.580;4.578;2023-04-01T01:50:18;99368.81;;;8.79;100.00
69153;BME280;56261;51.580;4.578;2023-04-01T01:52:44;99370.03;;;8.76;100.00
69153;BME280;56261;51.580;4.578;2023-04-01T01:55:26;99374.09;;;8.72;100.00
69153;BME280;56261;51.580;4.578;2023-04-01T01:57:52;99379.41;;;8.72;100.00
69153;BME280;56261;51.580;4.578;2023-04-01T02:00:19;99380.81;;;8.68;100.00
69153;BME280;56261;51.580;4.578;2023-04-01T02:02:47;99389.41;;;8.70;100.00
69153;BME280;56261;51.580;4.578;2023-04-01T02:05:20;99387.38;;;8.72;100.00
69153;BME280;56261;51.580;4.578;2023-04-01T02:08:00;99385.13;;;8.69;100.00
69153;BME280;56261;51.580;4.578;2023-04-01T02:10:28;99383.41;;;8.61;100.00
69153;BME280;56261;51.580;4.578;2023-04-01T02:12:59;99397.78;;;8.67;100.00
69153;BME280;56261;51.580;4.578;2023-04-01T02:15:27;99393.09;;;8.69;100.00
69153;BME280;56261;51.580;4.578;2023-04-01T02:17:56;99398.53;;;8.61;100.00
69153;BME280;56261;51.580;4.578;2023-04-01T02:20:23;99404.94;;;8.66;100.00
69153;BME280;56261;51.580;4.578;2023-04-01T02:22:51;99411.19;;;8.59;100.00
69153;BME280;56261;51.580;4.578;2023-04-01T02:25:29;99400.56;;;8.59;100.00
69153;BME280;56261;51.580;4.578;2023-04-01T02:27:57;99412.22;;;8.58;100.00
69153;BME280;56261;51.580;4.578;2023-04-01T02:30:25;99412.41;;;8.56;100.00
69153;BME280;56261;51.580;4.578;2023-04-01T02:32:52;99409.34;;;8.59;100.00
69153;BME280;56261;51.580;4.578;2023-04-01T02:35:18;99406.69;;;8.59;100.00
69153;BME280;56261;51.580;4.578;2023-04-01T02:37:45;99413.28;;;8.63;100.00
69153;BME280;56261;51.580;4.578;2023-04-01T02:40:13;99412.59;;;8.55;100.00
69153;BME280;56261;51.580;4.578;2023-04-01T02:42:39;99422.22;;;8.56;100.00
69153;BME280;56261;51.580;4.578;2023-04-01T02:45:05;99414.25;;;8.56;100.00
69153;BME280;56261;51.580;4.578;2023-04-01T02:47:31;99417.66;;;8.49;100.00
69153;BME280;56261;51.580;4.578;2023-04-01T02:49:57;99417.28;;;8.52;100.00
69153;BME280;56261;51.580;4.578;2023-04-01T02:52:26;99425.06;;;8.54;100.00
69153;BME280;56261;51.580;4.578;2023-04-01T02:54:52;99427.91;;;8.52;100.00
69153;BME280;56261;51.580;4.578;2023-04-01T02:57:17;99442.03;;;8.53;100.00
69153;BME280;56261;51.580;4.578;2023-04-01T02:59:43;99433.84;;;8.55;100.00
69153;BME280;56261;51.580;4.578;2023-04-01T03:02:08;99432.22;;;8.54;100.00
69153;BME280;56261;51.580;4.578;2023-04-01T03:04:34;99437.91;;;8.50;100.00
69153;BME280;56261;51.580;4.578;2023-04-01T03:06:59;99435.63;;;8.47;100.00
69153;BME280;56261;51.580;4.578;2023-04-01T03:09:24;99446.13;;;8.56;100.00
69153;BME280;56261;51.580;4.578;2023-04-01T03:11:50;99449.63;;;8.56;100.00
69153;BME280;56261;51.580;4.578;2023-04-01T03:14:15;99450.00;;;8.53;100.00
69153;BME280;56261;51.580;4.578;2023-04-01T03:16:41;99457.53;;;8.49;100.00
69153;BME280;56261;51.580;4.578;2023-04-01T03:19:06;99464.91;;;8.54;100.00
69153;BME280;56261;51.580;4.578;2023-04-01T03:21:31;99461.22;;;8.48;100.00
69153;BME280;56261;51.580;4.578;2023-04-01T03:23:57;99461.81;;;8.50;100.00
69153;BME280;56261;51.580;4.578;2023-04-01T03:26:22;99474.75;;;8.54;100.00
69153;BME280;56261;51.580;4.578;2023-04-01T03:28:48;99475.31;;;8.49;100.00
69153;BME280;56261;51.580;4.578;2023-04-01T03:31:13;99478.78;;;8.49;100.00
69153;BME280;56261;51.580;4.578;2023-04-01T03:33:39;99478.16;;;8.47;100.00
69153;BME280;56261;51.580;4.578;2023-04-01T03:36:05;99468.28;;;8.41;100.00
69153;BME280;56261;51.580;4.578;2023-04-01T03:38:33;99492.25;;;8.48;100.00
69153;BME280;56261;51.580;4.578;2023-04-01T03:40:59;99481.63;;;8.48;100.00
69153;BME280;56261;51.580;4.578;2023-04-01T03:43:24;99481.56;;;8.41;100.00
69153;BME280;56261;51.580;4.578;2023-04-01T03:45:51;99491.69;;;8.52;100.00
69153;BME280;56261;51.580;4.578;2023-04-01T03:48:17;99486.50;;;8.44;100.00
69153;BME280;56261;51.580;4.578;2023-04-01T03:50:43;99485.25;;;8.40;100.00
69153;BME280;56261;51.580;4.578;2023-04-01T03:53:10;99492.00;;;8.43;100.00
69153;BME280;56261;51.580;4.578;2023-04-01T03:55:36;99504.78;;;8.39;100.00
69153;BME280;56261;51.580;4.578;2023-04-01T03:58:02;99489.06;;;8.38;100.00
69153;BME280;56261;51.580;4.578;2023-04-01T04:00:29;99500.16;;;8.41;100.00
69153;BME280;56261;51.580;4.578;2023-04-01T04:02:55;99503.66;;;8.42;100.00
69153;BME280;56261;51.580;4.578;2023-04-01T04:05:22;99501.31;;;8.39;100.00
69153;BME280;56261;51.580;4.578;2023-04-01T04:07:48;99520.41;;;8.42;100.00
69153;BME280;56261;51.580;4.578;2023-04-01T04:10:13;99503.84;;;8.40;100.00
69153;BME280;56261;51.580;4.578;2023-04-01T04:12:39;99519.38;;;8.43;100.00
69153;BME280;56261;51.580;4.578;2023-04-01T04:15:06;99521.06;;;8.44;100.00
69153;BME280;56261;51.580;4.578;2023-04-01T04:17:31;99525.50;;;8.44;100.00
69153;BME280;56261;51.580;4.578;2023-04-01T04:19:57;99515.19;;;8.34;100.00
69153;BME280;56261;51.580;4.578;2023-04-01T04:22:22;99525.91;;;8.41;100.00
69153;BME280;56261;51.580;4.578;2023-04-01T04:24:47;99537.00;;;8.44;100.00
69153;BME280;56261;51.580;4.578;2023-04-01T04:27:13;99536.41;;;8.49;100.00
69153;BME280;56261;51.580;4.578;2023-04-01T04:29:38;99533.94;;;8.47;100.00
69153;BME280;56261;51.580;4.578;2023-04-01T04:32:04;99539.09;;;8.49;100.00
69153;BME280;56261;51.580;4.578;2023-04-01T04:34:29;99538.63;;;8.45;100.00
69153;BME280;56261;51.580;4.578;2023-04-01T04:36:55;99549.88;;;8.47;100.00
69153;BME280;56261;51.580;4.578;2023-04-01T04:39:20;99554.22;;;8.48;100.00
69153;BME280;56261;51.580;4.578;2023-04-01T04:41:45;99551.56;;;8.48;100.00
69153;BME280;56261;51.580;4.578;2023-04-01T04:44:11;99547.47;;;8.52;100.00
69153;BME280;56261;51.580;4.578;2023-04-01T04:46:36;99555.66;;;8.51;100.00
69153;BME280;56261;51.580;4.578;2023-04-01T04:49:04;99550.97;;;8.53;100.00
69153;BME280;56261;51.580;4.578;2023-04-01T04:51:30;99559.69;;;8.47;100.00
69153;BME280;56261;51.580;4.578;2023-04-01T04:53:55;99562.69;;;8.59;100.00
69153;BME280;56261;51.580;4.578;2023-04-01T04:56:22;99568.38;;;8.56;100.00
69153;BME280;56261;51.580;4.578;2023-04-01T04:58:48;99568.94;;;8.51;100.00
69153;BME280;56261;51.580;4.578;2023-04-01T05:01:15;99581.66;;;8.56;100.00
69153;BME280;56261;51.580;4.578;2023-04-01T05:03:41;99583.31;;;8.57;100.00
69153;BME280;56261;51.580;4.578;2023-04-01T05:06:09;99578.44;;;8.60;100.00
69153;BME280;56261;51.580;4.578;2023-04-01T05:08:35;99585.84;;;8.65;100.00
69153;BME280;56261;51.580;4.578;2023-04-01T05:11:01;99595.66;;;8.64;100.00
69153;BME280;56261;51.580;4.578;2023-04-01T05:13:27;99589.78;;;8.69;100.00
69153;BME280;56261;51.580;4.578;2023-04-01T05:15:53;99584.00;;;8.65;100.00
69153;BME280;56261;51.580;4.578;2023-04-01T05:18:19;99597.94;;;8.67;100.00
69153;BME280;56261;51.580;4.578;2023-04-01T05:20:50;99597.84;;;8.76;100.00
69153;BME280;56261;51.580;4.578;2023-04-01T05:23:16;99606.00;;;8.74;100.00
69153;BME280;56261;51.580;4.578;2023-04-01T05:25:41;99607.00;;;8.73;100.00
69153;BME280;56261;51.580;4.578;2023-04-01T05:28:07;99611.75;;;8.78;100.00
69153;BME280;56261;51.580;4.578;2023-04-01T05:30:32;99608.25;;;8.77;100.00
69153;BME280;56261;51.580;4.578;2023-04-01T05:32:58;99627.25;;;8.74;100.00
69153;BME280;56261;51.580;4.578;2023-04-01T05:35:24;99633.66;;;8.80;100.00
69153;BME280;56261;51.580;4.578;2023-04-01T05:37:49;99628.97;;;8.82;100.00
69153;BME280;56261;51.580;4.578;2023-04-01T05:40:15;99636.50;;;8.78;100.00
69153;BME280;56261;51.580;4.578;2023-04-01T05:42:40;99648.22;;;8.84;100.00
69153;BME280;56261;51.580;4.578;2023-04-01T05:45:06;99648.84;;;8.86;100.00
69153;BME280;56261;51.580;4.578;2023-04-01T05:47:32;99650.22;;;8.82;100.00
69153;BME280;56261;51.580;4.578;2023-04-01T05:49:57;99661.72;;;8.82;100.00
69153;BME280;56261;51.580;4.578;2023-04-01T05:52:23;99665.25;;;8.89;100.00
69153;BME280;56261;51.580;4.578;2023-04-01T05:54:49;99670.41;;;8.91;100.00
69153;BME280;56261;51.580;4.578;2023-04-01T05:57:14;99670.13;;;8.86;100.00
69153;BME280;56261;51.580;4.578;2023-04-01T05:59:40;99676.97;;;8.95;100.00
69153;BME280;56261;51.580;4.578;2023-04-01T06:02:05;99678.56;;;8.89;100.00
69153;BME280;56261;51.580;4.578;2023-04-01T06:04:38;99675.72;;;8.91;100.00
69153;BME280;56261;51.580;4.578;2023-04-01T06:07:14;99692.59;;;8.83;100.00
69153;BME280;56261;51.580;4.578;2023-04-01T06:09:40;99691.28;;;8.94;100.00
69153;BME280;56261;51.580;4.578;2023-04-01T06:17:35;99709.50;;;8.97;100.00
69153;BME280;56261;51.580;4.578;2023-04-01T06:20:12;99708.44;;;8.91;100.00
69153;BME280;56261;51.580;4.578;2023-04-01T06:23:10;99713.38;;;8.94;100.00
69153;BME280;56261;51.580;4.578;2023-04-01T06:31:37;99723.13;;;8.87;100.00
69153;BME280;56261;51.580;4.578;2023-04-01T06:34:28;99733.75;;;8.87;100.00
69153;BME280;56261;51.580;4.578;2023-04-01T06:48:10;99747.38;;;8.99;100.00
69153;BME280;56261;51.580;4.578;2023-04-01T06:51:01;99754.94;;;8.96;100.00
69153;BME280;56261;51.580;4.578;2023-04-01T06:53:52;99756.47;;;8.90;100.00
69153;BME280;56261;51.580;4.578;2023-04-01T06:56:21;99752.44;;;8.94;100.00
69153;BME280;56261;51.580;4.578;2023-04-01T06:58:54;99762.06;;;8.95;100.00
69153;BME280;56261;51.580;4.578;2023-04-01T07:01:34;99770.41;;;8.92;100.00
69153;BME280;56261;51.580;4.578;2023-04-01T07:04:15;99763.81;;;9.03;100.00
69153;BME280;56261;51.580;4.578;2023-04-01T07:06:54;99767.38;;;9.10;100.00
69153;BME280;56261;51.580;4.578;2023-04-01T07:09:25;99774.53;;;9.09;100.00
69153;BME280;56261;51.580;4.578;2023-04-01T07:11:53;99765.25;;;9.05;100.00
69153;BME280;56261;51.580;4.578;2023-04-01T07:14:35;99771.78;;;9.03;100.00
69153;BME280;56261;51.580;4.578;2023-04-01T07:17:09;99782.31;;;9.11;100.00
69153;BME280;56261;51.580;4.578;2023-04-01T07:22:32;99789.03;;;9.07;100.00
69153;BME280;56261;51.580;4.578;2023-04-01T07:25:07;99786.28;;;9.00;100.00
69153;BME280;56261;51.580;4.578;2023-04-01T07:27:36;99793.69;;;9.05;100.00
69153;BME280;56261;51.580;4.578;2023-04-01T07:30:03;99801.69;;;9.05;100.00
69153;BME280;56261;51.580;4.578;2023-04-01T07:32:42;99806.06;;;9.12;100.00
69153;BME280;56261;51.580;4.578;2023-04-01T07:40:47;99801.75;;;9.11;100.00
69153;BME280;56261;51.580;4.578;2023-04-01T07:43:17;99812.13;;;9.06;100.00
69153;BME280;56261;51.580;4.578;2023-04-01T07:46:10;99816.69;;;9.12;100.00
69153;BME280;56261;51.580;4.578;2023-04-01T07:48:57;99817.72;;;9.11;100.00
69153;BME280;56261;51.580;4.578;2023-04-01T07:53:59;99826.06;;;9.08;100.00
69153;BME280;56261;51.580;4.578;2023-04-01T08:07:17;99859.25;;;9.27;100.00
69153;BME280;56261;51.580;4.578;2023-04-01T08:17:46;99870.28;;;9.24;100.00
69153;BME280;56261;51.580;4.578;2023-04-01T08:25:38;99875.06;;;9.14;100.00
69153;BME280;56261;51.580;4.578;2023-04-01T08:30:47;99877.53;;;9.16;100.00
69153;BME280;56261;51.580;4.578;2023-04-01T08:33:26;99895.50;;;9.13;100.00
69153;BME280;56261;51.580;4.578;2023-04-01T08:38:55;99891.81;;;9.00;100.00
69153;BME280;56261;51.580;4.578;2023-04-01T08:44:22;99906.78;;;9.01;100.00
69153;BME280;56261;51.580;4.578;2023-04-01T08:47:04;99906.03;;;8.92;100.00
69153;BME280;56261;51.580;4.578;2023-04-01T08:55:19;99913.75;;;9.02;100.00
69153;BME280;56261;51.580;4.578;2023-04-01T09:00:35;99911.94;;;9.02;100.00
69153;BME280;56261;51.580;4.578;2023-04-01T09:20:17;99929.63;;;9.10;100.00
69153;BME280;56261;51.580;4.578;2023-04-01T09:25:44;99946.16;;;9.20;100.00
69153;BME280;56261;51.580;4.578;2023-04-01T09:28:28;99942.38;;;9.14;100.00
69153;BME280;56261;51.580;4.578;2023-04-01T09:32:00;99947.75;;;9.06;100.00
69153;BME280;56261;51.580;4.578;2023-04-01T09:34:30;99950.72;;;9.26;100.00
69153;BME280;56261;51.580;4.578;2023-04-01T09:40:09;99943.28;;;9.22;100.00
69153;BME280;56261;51.580;4.578;2023-04-01T09:42:47;99962.47;;;9.32;100.00
69153;BME280;56261;51.580;4.578;2023-04-01T09:51:08;99966.06;;;9.24;100.00
69153;BME280;56261;51.580;4.578;2023-04-01T09:57:10;99972.09;;;9.33;100.00
69153;BME280;56261;51.580;4.578;2023-04-01T10:05:37;99978.91;;;9.35;100.00
69153;BME280;56261;51.580;4.578;2023-04-01T10:11:19;99978.44;;;9.32;100.00
69153;BME280;56261;51.580;4.578;2023-04-01T10:16:53;99992.03;;;9.52;100.00
69153;BME280;56261;51.580;4.578;2023-04-01T10:22:04;99987.78;;;9.57;100.00
69153;BME280;56261;51.580;4.578;2023-04-01T10:46:56;100011.13;;;9.70;100.00
69153;BME280;56261;51.580;4.578;2023-04-01T11:30:53;100062.72;;;9.54;100.00
69153;BME280;56261;51.580;4.578;2023-04-01T11:39:44;100059.75;;;9.64;100.00
69153;BME280;56261;51.580;4.578;2023-04-01T11:45:27;100070.16;;;9.59;100.00
69153;BME280;56261;51.580;4.578;2023-04-01T12:01:44;100089.50;;;9.53;100.00
69153;BME280;56261;51.580;4.578;2023-04-01T12:12:43;100102.19;;;9.95;100.00
69153;BME280;56261;51.580;4.578;2023-04-01T12:20:58;100124.72;;;9.78;100.00
69153;BME280;56261;51.580;4.578;2023-04-01T12:23:36;100124.97;;;9.68;100.00
69153;BME280;56261;51.580;4.578;2023-04-01T12:26:23;100114.72;;;9.80;100.00
69153;BME280;56261;51.580;4.578;2023-04-01T12:31:34;100134.31;;;9.64;100.00
69153;BME280;56261;51.580;4.578;2023-04-01T12:34:30;100130.59;;;9.73;100.00
69153;BME280;56261;51.580;4.578;2023-04-01T12:37:15;100128.19;;;9.79;100.00
69153;BME280;56261;51.580;4.578;2023-04-01T12:45:30;100144.09;;;9.87;100.00
69153;BME280;56261;51.580;4.578;2023-04-01T12:59:55;100155.47;;;9.81;100.00
69153;BME280;56261;51.580;4.578;2023-04-01T13:02:38;100161.78;;;9.80;100.00
69153;BME280;56261;51.580;4.578;2023-04-01T13:08:00;100161.03;;;9.71;100.00
69153;BME280;56261;51.580;4.578;2023-04-01T13:16:16;100175.78;;;9.96;100.00
69153;BME280;56261;51.580;4.578;2023-04-01T13:30:05;100192.13;;;9.79;100.00
69153;BME280;56261;51.580;4.578;2023-04-01T13:32:47;100182.38;;;9.86;100.00
69153;BME280;56261;51.580;4.578;2023-04-01T13:40:51;100199.56;;;9.83;100.00
69153;BME280;56261;51.580;4.578;2023-04-01T13:48:32;100205.72;;;9.84;100.00
69153;BME280;56261;51.580;4.578;2023-04-01T13:51:18;100200.28;;;9.77;100.00
69153;BME280;56261;51.580;4.578;2023-04-01T13:56:27;100213.66;;;9.69;100.00
69153;BME280;56261;51.580;4.578;2023-04-01T14:09:59;100233.09;;;9.54;100.00
69153;BME280;56261;51.580;4.578;2023-04-01T14:12:31;100245.59;;;9.69;100.00
69153;BME280;56261;51.580;4.578;2023-04-01T14:20:59;100246.94;;;9.50;100.00
69153;BME280;56261;51.580;4.578;2023-04-01T14:24:12;100255.81;;;9.65;100.00
69153;BME280;56261;51.580;4.578;2023-04-01T14:40:24;100264.50;;;9.59;100.00
69153;BME280;56261;51.580;4.578;2023-04-01T14:43:22;100271.00;;;9.56;100.00
69153;BME280;56261;51.580;4.578;2023-04-01T14:49:24;100253.19;;;9.57;100.00
69153;BME280;56261;51.580;4.578;2023-04-01T14:51:55;100286.19;;;9.48;100.00
69153;BME280;56261;51.580;4.578;2023-04-01T14:54:35;100281.53;;;9.50;100.00
69153;BME280;56261;51.580;4.578;2023-04-01T14:57:13;100279.88;;;9.49;100.00
69153;BME280;56261;51.580;4.578;2023-04-01T14:59:46;100286.50;;;9.53;100.00
69153;BME280;56261;51.580;4.578;2023-04-01T15:08:01;100296.03;;;9.47;100.00
69153;BME280;56261;51.580;4.578;2023-04-01T15:13:05;100299.28;;;9.57;100.00
69153;BME280;56261;51.580;4.578;2023-04-01T15:16:01;100308.94;;;9.59;100.00
69153;BME280;56261;51.580;4.578;2023-04-01T15:19:18;100311.09;;;9.55;100.00
69153;BME280;56261;51.580;4.578;2023-04-01T15:35:34;100331.16;;;9.43;100.00
69153;BME280;56261;51.580;4.578;2023-04-01T15:40:55;100331.94;;;9.51;100.00
69153;BME280;56261;51.580;4.578;2023-04-01T15:43:48;100338.22;;;9.59;100.00
69153;BME280;56261;51.580;4.578;2023-04-01T16:08:43;100377.97;;;9.29;100.00
69153;BME280;56261;51.580;4.578;2023-04-01T16:11:29;100382.81;;;9.25;100.00
69153;BME280;56261;51.580;4.578;2023-04-01T16:14:09;100380.31;;;9.24;100.00
69153;BME280;56261;51.580;4.578;2023-04-01T16:16:46;100391.28;;;9.21;100.00
69153;BME280;56261;51.580;4.578;2023-04-01T16:19:31;100392.94;;;9.22;100.00
69153;BME280;56261;51.580;4.578;2023-04-01T16:22:31;100390.13;;;9.23;100.00
69153;BME280;56261;51.580;4.578;2023-04-01T16:28:25;100396.47;;;9.22;100.00
69153;BME280;56261;51.580;4.578;2023-04-01T16:37:09;100415.09;;;9.14;100.00
69153;BME280;56261;51.580;4.578;2023-04-01T16:40:20;100415.09;;;9.14;100.00
69153;BME280;56261;51.580;4.578;2023-04-01T16:54:13;100431.72;;;9.24;100.00
69153;BME280;56261;51.580;4.578;2023-04-01T16:56:45;100434.06;;;9.11;100.00
69153;BME280;56261;51.580;4.578;2023-04-01T16:59:17;100436.22;;;9.16;100.00
69153;BME280;56261;51.580;4.578;2023-04-01T17:04:21;100450.66;;;9.21;100.00
69153;BME280;56261;51.580;4.578;2023-04-01T17:06:53;100457.47;;;9.24;100.00
69153;BME280;56261;51.580;4.578;2023-04-01T17:12:34;100454.81;;;9.24;100.00
69153;BME280;56261;51.580;4.578;2023-04-01T17:15:21;100469.59;;;9.34;100.00
69153;BME280;56261;51.580;4.578;2023-04-01T17:18:11;100473.25;;;9.33;100.00
69153;BME280;56261;51.580;4.578;2023-04-01T17:21:06;100470.41;;;9.35;100.00
69153;BME280;56261;51.580;4.578;2023-04-01T17:23:38;100492.03;;;9.40;100.00
69153;BME280;56261;51.580;4.578;2023-04-01T17:26:38;100484.38;;;9.45;100.00
69153;BME280;56261;51.580;4.578;2023-04-01T17:29:24;100481.19;;;9.50;100.00
69153;BME280;56261;51.580;4.578;2023-04-01T17:32:47;100501.16;;;9.54;100.00
69153;BME280;56261;51.580;4.578;2023-04-01T17:35:14;100512.97;;;9.51;100.00
69153;BME280;56261;51.580;4.578;2023-04-01T17:37:45;100514.78;;;9.51;100.00
69153;BME280;56261;51.580;4.578;2023-04-01T17:45:40;100530.75;;;9.51;100.00
69153;BME280;56261;51.580;4.578;2023-04-01T17:51:24;100541.59;;;9.49;100.00
69153;BME280;56261;51.580;4.578;2023-04-01T17:59:49;100559.41;;;9.49;100.00
69153;BME280;56261;51.580;4.578;2023-04-01T18:21:51;100609.97;;;9.41;100.00
69153;BME280;56261;51.580;4.578;2023-04-01T18:27:11;100614.81;;;9.29;100.00
69153;BME280;56261;51.580;4.578;2023-04-01T18:30:06;100615.81;;;9.36;100.00
69153;BME280;56261;51.580;4.578;2023-04-01T18:32:37;100629.13;;;9.36;100.00
69153;BME280;56261;51.580;4.578;2023-04-01T18:38:04;100638.28;;;9.33;100.00
69153;BME280;56261;51.580;4.578;2023-04-01T18:41:07;100646.41;;;9.32;100.00
69153;BME280;56261;51.580;4.578;2023-04-01T18:46:55;100661.88;;;9.28;100.00
69153;BME280;56261;51.580;4.578;2023-04-01T18:52:10;100663.53;;;9.21;100.00
69153;BME280;56261;51.580;4.578;2023-04-01T18:57:49;100672.69;;;9.19;100.00
69153;BME280;56261;51.580;4.578;2023-04-01T19:00:22;100699.44;;;9.09;100.00
69153;BME280;56261;51.580;4.578;2023-04-01T19:05:42;100693.28;;;9.00;100.00
69153;BME280;56261;51.580;4.578;2023-04-01T19:35:38;100764.84;;;8.77;100.00
69153;BME280;56261;51.580;4.578;2023-04-01T19:38:28;100770.81;;;8.79;100.00
69153;BME280;56261;51.580;4.578;2023-04-01T19:46:14;100779.47;;;8.73;100.00
69153;BME280;56261;51.580;4.578;2023-04-01T19:49:14;100795.25;;;8.75;100.00
69153;BME280;56261;51.580;4.578;2023-04-01T19:52:00;100801.03;;;8.70;100.00
69153;BME280;56261;51.580;4.578;2023-04-01T19:57:21;100805.00;;;8.66;100.00
69153;BME280;56261;51.580;4.578;2023-04-01T20:00:15;100808.50;;;8.66;100.00
69153;BME280;56261;51.580;4.578;2023-04-01T20:05:33;100820.13;;;8.65;100.00
69153;BME280;56261;51.580;4.578;2023-04-01T20:16:07;100844.47;;;8.52;100.00
69153;BME280;56261;51.580;4.578;2023-04-01T20:18:37;100852.28;;;8.54;100.00
69153;BME280;56261;51.580;4.578;2023-04-01T20:21:56;100857.28;;;8.57;100.00
69153;BME280;56261;51.580;4.578;2023-04-01T20:24:35;100859.59;;;8.52;100.00
69153;BME280;56261;51.580;4.578;2023-04-01T20:27:16;100864.22;;;8.50;100.00
69153;BME280;56261;51.580;4.578;2023-04-01T20:35:50;100883.44;;;8.44;100.00
69153;BME280;56261;51.580;4.578;2023-04-01T20:38:56;100890.59;;;8.43;100.00
69153;BME280;56261;51.580;4.578;2023-04-01T20:41:49;100893.41;;;8.42;100.00
69153;BME280;56261;51.580;4.578;2023-04-01T20:44:45;100893.41;;;8.42;100.00
69153;BME280;56261;51.580;4.578;2023-04-01T20:47:34;100913.22;;;8.47;100.00
69153;BME280;56261;51.580;4.578;2023-04-01T20:50:11;100920.50;;;8.45;100.00
69153;BME280;56261;51.580;4.578;2023-04-01T20:53:01;100919.22;;;8.49;100.00
69153;BME280;56261;51.580;4.578;2023-04-01T20:56:05;100924.66;;;8.48;100.00
69153;BME280;56261;51.580;4.578;2023-04-01T20:58:27;100927.88;;;8.51;100.00
69153;BME280;56261;51.580;4.578;2023-04-01T21:03:29;100938.28;;;8.45;100.00
69153;BME280;56261;51.580;4.578;2023-04-01T21:06:31;100936.44;;;8.45;100.00
69153;BME280;56261;51.580;4.578;2023-04-01T21:09:15;100950.41;;;8.29;100.00
69153;BME280;56261;51.580;4.578;2023-04-01T21:17:22;100978.84;;;8.19;100.00
69153;BME280;56261;51.580;4.578;2023-04-01T21:22:53;100989.06;;;8.24;100.00
69153;BME280;56261;51.580;4.578;2023-04-01T21:42:55;101031.28;;;7.99;100.00
69153;BME280;56261;51.580;4.578;2023-04-01T21:54:20;101048.19;;;7.98;100.00
69153;BME280;56261;51.580;4.578;2023-04-01T22:00:08;101053.75;;;7.77;100.00
69153;BME280;56261;51.580;4.578;2023-04-01T22:05:18;101067.75;;;7.69;100.00
69153;BME280;56261;51.580;4.578;2023-04-01T22:16:29;101082.44;;;7.64;100.00
69153;BME280;56261;51.580;4.578;2023-04-01T22:22:04;101094.28;;;7.69;100.00
69153;BME280;56261;51.580;4.578;2023-04-01T22:27:35;101100.03;;;7.65;100.00
69153;BME280;56261;51.580;4.578;2023-04-01T22:30:17;101094.91;;;7.54;100.00
69153;BME280;56261;51.580;4.578;2023-04-01T22:32:48;101109.00;;;7.54;100.00
69153;BME280;56261;51.580;4.578;2023-04-01T22:35:27;101113.03;;;7.58;100.00
69153;BME280;56261;51.580;4.578;2023-04-01T22:41:01;101133.59;;;7.56;100.00
69153;BME280;56261;51.580;4.578;2023-04-01T22:43:38;101134.84;;;7.52;100.00
69153;BME280;56261;51.580;4.578;2023-04-01T22:49:06;101163.06;;;7.43;100.00
69153;BME280;56261;51.580;4.578;2023-04-01T22:54:28;101161.97;;;7.36;100.00
69153;BME280;56261;51.580;4.578;2023-04-01T22:57:03;101166.16;;;7.39;100.00